createdAt,value
2022-11-19T00:00:34.835Z,93887.40
2022-11-19T00:03:01.216Z,93882.38
2022-11-19T00:05:27.575Z,93897.70
2022-11-19T00:07:55.199Z,93898.65
2022-11-19T00:10:20.315Z,93892.20
2022-11-19T00:12:46.704Z,93878.52
2022-11-19T00:15:13.047Z,93884.17
2022-11-19T00:17:39.438Z,93893.97
2022-11-19T00:20:05.787Z,93892.84
2022-11-19T00:22:32.232Z,93903.48
2022-11-19T00:24:58.571Z,93903.14
2022-11-19T00:27:24.989Z,93910.53
2022-11-19T00:29:51.324Z,93898.63
2022-11-19T00:32:17.736Z,93906.67
2022-11-19T00:34:44.096Z,93908.42
2022-11-19T00:37:10.475Z,93909.41
2022-11-19T00:39:36.822Z,93922.47
2022-11-19T00:42:03.217Z,93923.09
2022-11-19T00:46:55.776Z,93916.31
2022-11-19T00:49:22.266Z,93906.02
2022-11-19T00:51:48.500Z,93907.91
2022-11-19T00:54:14.851Z,93918.89
2022-11-19T00:56:41.230Z,93907.12
2022-11-19T00:59:07.570Z,93909.19
2022-11-19T01:01:34.032Z,93902.45
2022-11-19T01:04:00.303Z,93906.30
2022-11-19T01:06:26.687Z,93901.16
2022-11-19T01:08:53.038Z,93917.90
2022-11-19T01:11:19.416Z,93915.80
2022-11-19T01:13:45.794Z,93913.69
2022-11-19T01:16:12.172Z,93917.55
2022-11-19T01:18:38.515Z,93914.16
2022-11-19T01:21:04.898Z,93911.59
2022-11-19T01:23:31.244Z,93921.89
2022-11-19T01:25:57.643Z,93916.27
2022-11-19T01:28:24.019Z,93913.85
2022-11-19T01:30:50.412Z,93909.17
2022-11-19T01:33:16.784Z,93911.75
2022-11-19T01:35:43.166Z,93916.91
2022-11-19T01:38:09.514Z,93934.92
2022-11-19T01:40:35.907Z,93932.83
2022-11-19T01:43:02.245Z,93943.13
2022-11-19T01:45:28.638Z,93946.98
2022-11-19T01:47:54.982Z,93953.77
2022-11-19T01:50:21.362Z,93958.10
2022-11-19T01:52:47.713Z,93953.89
2022-11-19T01:55:14.090Z,93960.80
2022-11-19T01:57:40.432Z,93971.92
2022-11-19T02:00:09.945Z,93966.43
2022-11-19T02:02:36.337Z,93957.92
2022-11-19T02:05:02.721Z,93952.77
2022-11-19T02:07:29.153Z,93945.17
2022-11-19T02:09:55.454Z,93946.80
2022-11-19T02:12:21.800Z,93952.42
2022-11-19T02:14:51.923Z,93944.36
2022-11-19T02:17:14.555Z,93944.70
2022-11-19T02:19:40.971Z,93940.50
2022-11-19T02:22:07.314Z,93961.56
2022-11-19T02:24:33.702Z,93970.92
2022-11-19T02:27:00.058Z,93977.83
2022-11-19T02:29:26.441Z,93986.38
2022-11-19T02:31:52.795Z,93981.86
2022-11-19T02:34:19.172Z,93989.42
2022-11-19T02:36:45.516Z,93988.30
2022-11-19T02:39:11.914Z,93986.66
2022-11-19T02:41:38.260Z,93999.06
2022-11-19T02:44:04.655Z,94002.45
2022-11-19T02:46:30.993Z,94009.36
2022-11-19T02:48:57.388Z,94008.08
2022-11-19T02:51:23.728Z,94002.58
2022-11-19T02:53:50.119Z,94009.49
2022-11-19T02:56:16.468Z,94012.06
2022-11-19T02:58:42.856Z,94013.04
2022-11-19T03:01:09.225Z,94007.08
2022-11-19T03:03:35.581Z,94017.37
2022-11-19T03:06:01.937Z,94015.11
2022-11-19T03:08:28.323Z,94019.48
2022-11-19T03:10:54.664Z,94024.63
2022-11-19T03:13:21.057Z,94043.94
2022-11-19T03:15:47.496Z,94046.17
2022-11-19T03:18:13.874Z,94044.06
2022-11-19T03:20:40.225Z,94045.36
2022-11-19T03:23:06.603Z,94045.36
2022-11-19T03:25:32.947Z,94045.36
2022-11-19T03:27:59.339Z,94055.78
2022-11-19T03:30:25.707Z,94054.84
2022-11-19T03:32:52.095Z,94058.86
2022-11-19T03:35:18.433Z,94055.00
2022-11-19T03:37:44.829Z,94057.57
2022-11-19T03:40:11.178Z,94057.22
2022-11-19T03:42:37.563Z,94057.22
2022-11-19T03:45:03.919Z,94047.39
2022-11-19T03:47:30.428Z,94057.70
2022-11-19T03:49:56.767Z,94059.80
2022-11-19T03:52:23.159Z,94058.17
2022-11-19T03:54:49.506Z,94059.80
2022-11-19T03:57:15.890Z,94069.44
2022-11-19T03:59:42.236Z,94078.77
2022-11-19T04:02:08.700Z,94077.16
2022-11-19T04:04:34.965Z,94083.09
2022-11-19T04:07:01.397Z,94077.63
2022-11-19T04:09:27.699Z,94089.69
2022-11-19T04:14:19.404Z,94089.22
2022-11-19T04:16:47.475Z,94097.41
2022-11-19T04:19:12.157Z,94107.37
2022-11-19T04:21:38.540Z,94112.05
2022-11-19T04:24:04.882Z,94124.91
2022-11-19T04:26:31.273Z,94124.91
2022-11-19T04:28:57.609Z,94120.70
2022-11-19T04:31:24.049Z,94110.09
2022-11-19T04:33:50.390Z,94106.70
2022-11-19T04:36:16.772Z,94109.28
2022-11-19T04:38:43.123Z,94120.05
2022-11-19T04:41:09.499Z,94121.69
2022-11-19T04:43:35.842Z,94120.52
2022-11-19T04:46:02.224Z,94120.86
2022-11-19T04:48:28.563Z,94130.34
2022-11-19T04:50:54.955Z,94134.67
2022-11-19T04:53:21.329Z,94144.16
2022-11-19T04:55:47.719Z,94142.41
2022-11-19T04:58:14.066Z,94145.13
2022-11-19T05:00:40.451Z,94146.73
2022-11-19T05:03:06.796Z,94147.70
2022-11-19T05:05:33.183Z,94147.36
2022-11-19T05:07:59.521Z,94164.44
2022-11-19T05:10:25.920Z,94176.02
2022-11-19T05:12:52.300Z,94192.76
2022-11-19T05:15:18.682Z,94197.91
2022-11-19T05:17:45.028Z,94209.49
2022-11-19T05:20:11.416Z,94209.96
2022-11-19T05:22:37.767Z,94222.68
2022-11-19T05:25:04.170Z,94226.70
2022-11-19T05:27:30.492Z,94231.50
2022-11-19T05:29:56.927Z,94234.07
2022-11-19T05:32:23.256Z,94239.84
2022-11-19T05:34:51.101Z,94243.23
2022-11-19T05:37:17.200Z,94242.73
2022-11-19T05:39:42.370Z,94239.84
2022-11-19T05:42:08.713Z,94245.80
2022-11-19T05:44:35.110Z,94253.03
2022-11-19T05:47:01.444Z,94252.83
2022-11-19T05:49:27.830Z,94259.97
2022-11-19T05:51:54.175Z,94268.98
2022-11-19T05:54:20.604Z,94278.45
2022-11-19T05:56:46.918Z,94287.78
2022-11-19T05:59:13.343Z,94291.80
2022-11-19T06:01:39.690Z,94288.88
2022-11-19T06:04:06.073Z,94283.72
2022-11-19T06:06:32.420Z,94281.30
2022-11-19T06:08:58.804Z,94283.52
2022-11-19T06:11:25.143Z,94291.72
2022-11-19T06:13:51.532Z,94287.50
2022-11-19T06:16:17.902Z,94294.09
2022-11-19T06:18:44.275Z,94301.47
2022-11-19T06:21:12.255Z,94310.74
2022-11-19T06:23:37.020Z,94314.95
2022-11-19T06:26:03.357Z,94332.77
2022-11-19T06:28:29.743Z,94341.78
2022-11-19T06:30:56.084Z,94355.78
2022-11-19T06:33:22.469Z,94353.83
2022-11-19T06:35:48.815Z,94347.52
2022-11-19T06:38:15.212Z,94345.55
2022-11-19T06:40:41.559Z,94355.84
2022-11-19T06:43:07.942Z,94355.97
2022-11-19T06:45:34.299Z,94365.12
2022-11-19T06:48:00.686Z,94370.50
2022-11-19T06:50:27.029Z,94372.25
2022-11-19T06:52:53.415Z,94380.80
2022-11-19T06:55:19.758Z,94385.59
2022-11-19T06:57:46.146Z,94382.55
2022-11-19T07:00:12.521Z,94388.98
2022-11-19T07:02:38.906Z,94387.48
2022-11-19T07:05:05.247Z,94384.45
2022-11-19T07:07:31.685Z,94391.20
2022-11-19T07:09:57.992Z,94392.96
2022-11-19T07:12:24.377Z,94389.51
2022-11-19T07:14:50.748Z,94401.17
2022-11-19T07:17:17.132Z,94405.06
2022-11-19T07:19:43.472Z,94393.22
2022-11-19T07:22:09.865Z,94382.72
2022-11-19T07:24:36.205Z,94389.04
2022-11-19T07:27:02.604Z,94383.55
2022-11-19T07:29:28.947Z,94384.36
2022-11-19T07:31:55.331Z,94378.52
2022-11-19T07:34:21.666Z,94376.29
2022-11-19T07:36:48.188Z,94390.18
2022-11-19T07:39:14.531Z,94398.25
2022-11-19T07:41:40.931Z,94396.27
2022-11-19T07:44:07.271Z,94393.37
2022-11-19T07:46:33.656Z,94397.78
2022-11-19T07:48:59.995Z,94404.22
2022-11-19T07:51:26.379Z,94408.92
2022-11-19T07:53:52.730Z,94409.65
2022-11-19T07:56:19.122Z,94405.06
2022-11-19T07:58:45.557Z,94375.14
2022-11-19T08:01:11.950Z,94403.22
2022-11-19T08:03:38.294Z,94400.79
2022-11-19T08:06:04.642Z,94410.00
2022-11-19T08:08:31.032Z,94409.39
2022-11-19T08:10:57.380Z,94412.58
2022-11-19T08:13:23.765Z,94422.52
2022-11-19T08:15:50.108Z,94438.92
2022-11-19T08:18:16.487Z,94450.82
2022-11-19T08:20:42.831Z,94439.48
2022-11-19T08:23:09.326Z,94435.99
2022-11-19T08:25:35.569Z,94445.35
2022-11-19T08:28:01.955Z,94439.23
2022-11-19T08:30:28.330Z,94444.38
2022-11-19T08:32:54.759Z,94450.82
2022-11-19T08:35:21.134Z,94441.95
2022-11-19T08:37:47.525Z,94446.28
2022-11-19T08:40:13.865Z,94450.00
2022-11-19T08:42:40.250Z,94450.35
2022-11-19T08:45:06.598Z,94446.28
2022-11-19T08:47:32.982Z,94449.33
2022-11-19T08:49:59.313Z,94443.36
2022-11-19T08:52:25.703Z,94447.83
2022-11-19T08:54:52.053Z,94450.35
2022-11-19T08:57:18.481Z,94447.69
2022-11-19T08:59:44.827Z,94441.95
2022-11-19T09:02:11.260Z,94442.38
2022-11-19T09:04:37.610Z,94438.09
2022-11-19T09:07:04.052Z,94458.89
2022-11-19T09:09:30.344Z,94462.64
2022-11-19T09:11:56.731Z,94446.38
2022-11-19T09:14:23.075Z,94452.04
2022-11-19T09:16:49.459Z,94466.19
2022-11-19T09:19:15.796Z,94466.26
2022-11-19T09:21:42.183Z,94463.12
2022-11-19T09:24:08.530Z,94460.30
2022-11-19T09:26:34.946Z,94461.38
2022-11-19T09:29:01.289Z,94459.45
2022-11-19T09:31:27.672Z,94464.97
2022-11-19T09:33:54.007Z,94453.86
2022-11-19T09:36:20.412Z,94449.63
2022-11-19T09:38:46.738Z,94444.37
2022-11-19T09:41:14.551Z,94446.23
2022-11-19T09:43:39.499Z,94440.77
2022-11-19T09:46:05.880Z,94437.23
2022-11-19T09:48:32.220Z,94428.11
2022-11-19T09:50:58.603Z,94440.72
2022-11-19T09:53:24.951Z,94433.58
2022-11-19T09:55:51.340Z,94415.70
2022-11-19T09:58:17.691Z,94397.08
2022-11-19T10:00:44.075Z,94401.17
2022-11-19T10:03:10.467Z,94393.92
2022-11-19T10:05:36.810Z,94387.52
2022-11-19T10:08:03.149Z,94380.91
2022-11-19T10:10:29.534Z,94385.13
2022-11-19T10:12:55.871Z,94399.66
2022-11-19T10:15:22.282Z,94387.02
2022-11-19T10:20:33.905Z,94364.06
2022-11-19T10:23:00.249Z,94366.50
2022-11-19T10:25:26.633Z,94367.90
2022-11-19T10:27:52.972Z,94365.67
2022-11-19T10:30:19.430Z,94373.39
2022-11-19T10:32:45.759Z,94382.05
2022-11-19T10:35:12.149Z,94370.13
2022-11-19T10:37:38.493Z,94369.48
2022-11-19T10:40:04.881Z,94367.02
2022-11-19T10:42:31.215Z,94356.48
2022-11-19T10:44:57.611Z,94364.68
2022-11-19T10:47:23.958Z,94365.97
2022-11-19T10:49:50.384Z,94368.30
2022-11-19T10:52:16.732Z,94360.73
2022-11-19T10:54:43.110Z,94347.68
2022-11-19T10:57:09.450Z,94352.88
2022-11-19T10:59:35.854Z,94345.77
2022-11-19T11:02:02.186Z,94345.71
2022-11-19T11:04:28.573Z,94340.63
2022-11-19T11:06:55.139Z,94346.59
2022-11-19T11:09:21.693Z,94345.86
2022-11-19T11:11:47.702Z,94342.62
2022-11-19T11:14:14.133Z,94353.31
2022-11-19T11:16:40.571Z,94336.39
2022-11-19T11:19:08.601Z,94322.35
2022-11-19T11:21:33.308Z,94324.80
2022-11-19T11:23:59.696Z,94326.22
2022-11-19T11:26:26.037Z,94324.94
2022-11-19T11:28:52.433Z,94315.80
2022-11-19T11:31:18.778Z,94313.81
2022-11-19T11:33:45.162Z,94314.09
2022-11-19T11:36:11.507Z,94322.24
2022-11-19T11:38:37.894Z,94327.12
2022-11-19T11:43:30.653Z,94318.66
2022-11-19T11:45:56.992Z,94308.55
2022-11-19T11:48:23.384Z,94304.69
2022-11-19T11:50:49.720Z,94302.45
2022-11-19T11:53:16.114Z,94304.34
2022-11-19T11:55:42.459Z,94311.73
2022-11-19T11:58:08.840Z,94323.88
2022-11-19T12:00:35.224Z,94319.79
2022-11-19T12:03:01.603Z,94304.60
2022-11-19T12:05:27.945Z,94318.50
2022-11-19T12:07:54.334Z,94314.94
2022-11-19T12:10:20.674Z,94318.77
2022-11-19T12:12:47.064Z,94307.80
2022-11-19T12:15:14.415Z,94309.75
2022-11-19T12:17:39.799Z,94320.41
2022-11-19T12:20:06.169Z,94319.66
2022-11-19T12:22:32.556Z,94310.38
2022-11-19T12:24:58.894Z,94299.82
2022-11-19T12:27:25.285Z,94314.59
2022-11-19T12:29:51.671Z,94319.04
2022-11-19T12:32:18.029Z,94312.63
2022-11-19T12:34:44.376Z,94307.64
2022-11-19T12:37:10.787Z,94304.75
2022-11-19T12:39:37.133Z,94304.97
2022-11-19T12:42:03.524Z,94305.34
2022-11-19T12:44:29.881Z,94315.75
2022-11-19T12:46:56.270Z,94306.73
2022-11-19T12:49:22.851Z,94318.20
2022-11-19T12:51:49.002Z,94323.53
2022-11-19T12:54:17.571Z,94318.58
2022-11-19T12:56:41.740Z,94309.83
2022-11-19T12:59:08.087Z,94317.91
2022-11-19T13:01:34.530Z,94321.55
2022-11-19T13:04:00.813Z,94313.30
2022-11-19T13:06:27.209Z,94305.89
2022-11-19T13:08:53.550Z,94308.16
2022-11-19T13:11:20.911Z,94318.92
2022-11-19T13:13:46.282Z,94314.91
2022-11-19T13:16:12.665Z,94319.52
2022-11-19T13:18:38.999Z,94332.74
2022-11-19T13:21:05.393Z,94330.32
2022-11-19T13:23:31.739Z,94326.58
2022-11-19T13:25:58.124Z,94322.84
2022-11-19T13:28:24.475Z,94311.12
2022-11-19T13:30:50.850Z,94314.16
2022-11-19T13:33:17.254Z,94311.00
2022-11-19T13:35:43.644Z,94304.69
2022-11-19T13:38:09.996Z,94314.64
2022-11-19T13:40:36.376Z,94326.23
2022-11-19T13:43:30.382Z,94325.29
2022-11-19T13:45:29.123Z,94322.64
2022-11-19T13:47:58.095Z,94309.22
2022-11-19T13:50:21.863Z,94310.97
2022-11-19T13:52:48.234Z,94318.92
2022-11-19T13:55:14.622Z,94313.89
2022-11-19T13:57:41.064Z,94321.27
2022-11-19T14:00:07.501Z,94313.08
2022-11-19T14:02:33.773Z,94321.50
2022-11-19T14:05:00.171Z,94322.09
2022-11-19T14:07:30.857Z,94323.85
2022-11-19T14:09:52.892Z,94321.23
2022-11-19T14:12:19.232Z,94321.55
2022-11-19T14:14:45.619Z,94326.23
2022-11-19T14:17:11.979Z,94323.45
2022-11-19T14:19:38.353Z,94321.08
2022-11-19T14:22:04.691Z,94319.39
2022-11-19T14:24:32.033Z,94325.68
2022-11-19T14:26:57.445Z,94323.26
2022-11-19T14:29:23.821Z,94310.84
2022-11-19T14:31:50.168Z,94321.81
2022-11-19T14:34:16.559Z,94310.23
2022-11-19T14:36:42.904Z,94316.47
2022-11-19T14:39:09.304Z,94319.86
2022-11-19T14:41:35.635Z,94322.24
2022-11-19T14:44:02.031Z,94319.98
2022-11-19T14:46:28.386Z,94311.12
2022-11-19T14:48:54.824Z,94309.48
2022-11-19T14:51:21.108Z,94313.70
2022-11-19T14:53:47.496Z,94307.53
2022-11-19T14:56:13.869Z,94311.74
2022-11-19T14:58:40.266Z,94307.53
2022-11-19T15:01:06.625Z,94311.86
2022-11-19T15:03:33.188Z,94307.65
2022-11-19T15:05:59.498Z,94306.71
2022-11-19T15:08:25.886Z,94308.00
2022-11-19T15:10:52.229Z,94318.03
2022-11-19T15:13:18.628Z,94311.59
2022-11-19T15:15:44.983Z,94310.66
2022-11-19T15:18:11.352Z,94307.61
2022-11-19T15:20:37.701Z,94317.09
2022-11-19T15:23:04.119Z,94325.76
2022-11-19T15:25:30.463Z,94323.53
2022-11-19T15:27:56.852Z,94323.06
2022-11-19T15:30:23.191Z,94329.16
2022-11-19T15:32:52.053Z,94325.95
2022-11-19T15:35:18.473Z,94331.84
2022-11-19T15:37:44.796Z,94329.97
2022-11-19T15:40:11.146Z,94326.23
2022-11-19T15:42:37.541Z,94332.08
2022-11-19T15:45:03.885Z,94340.86
2022-11-19T15:47:30.272Z,94344.26
2022-11-19T15:49:56.618Z,94328.95
2022-11-19T15:52:23.006Z,94323.92
2022-11-19T15:54:49.349Z,94317.28
2022-11-19T15:57:15.748Z,94309.29
2022-11-19T15:59:42.096Z,94307.66
2022-11-19T16:02:08.478Z,94304.53
2022-11-19T16:04:34.816Z,94297.63
2022-11-19T16:07:01.243Z,94295.87
2022-11-19T16:09:27.559Z,94299.73
2022-11-19T16:11:53.946Z,94302.92
2022-11-19T16:14:20.291Z,94312.14
2022-11-19T16:16:46.670Z,94302.92
2022-11-19T16:19:13.015Z,94305.03
2022-11-19T16:21:39.441Z,94314.83
2022-11-19T16:24:05.785Z,94308.39
2022-11-19T16:26:32.184Z,94320.13
2022-11-19T16:28:58.520Z,94323.53
2022-11-19T16:31:24.904Z,94328.48
2022-11-19T16:33:51.245Z,94341.41
2022-11-19T16:36:17.629Z,94346.36
2022-11-19T16:38:43.966Z,94345.53
2022-11-19T16:41:10.360Z,94345.53
2022-11-19T16:43:36.711Z,94343.66
2022-11-19T16:46:03.094Z,94340.38
2022-11-19T16:48:29.436Z,94333.95
2022-11-19T16:50:55.818Z,94337.61
2022-11-19T16:53:22.159Z,94339.25
2022-11-19T16:55:48.549Z,94342.77
2022-11-19T16:58:14.896Z,94330.01
2022-11-19T17:00:41.281Z,94321.49
2022-11-19T17:03:07.660Z,94323.25
2022-11-19T17:05:34.107Z,94321.81
2022-11-19T17:08:00.454Z,94325.55
2022-11-19T17:10:26.837Z,94348.27
2022-11-19T17:12:53.178Z,94369.53
2022-11-19T17:15:19.571Z,94361.95
2022-11-19T17:17:45.921Z,94369.45
2022-11-19T17:20:12.305Z,94368.39
2022-11-19T17:22:38.641Z,94360.12
2022-11-19T17:25:05.034Z,94340.92
2022-11-19T17:27:31.368Z,94318.84
2022-11-19T17:29:57.758Z,94318.77
2022-11-19T17:32:24.105Z,94315.17
2022-11-19T17:34:50.485Z,94335.78
2022-11-19T17:37:16.841Z,94352.86
2022-11-19T17:39:43.235Z,94369.92
2022-11-19T17:42:09.581Z,94361.52
2022-11-19T17:44:35.969Z,94379.08
2022-11-19T17:47:02.333Z,94388.09
2022-11-19T17:49:28.742Z,94393.91
2022-11-19T17:51:55.077Z,94388.77
2022-11-19T17:54:21.715Z,94388.56
2022-11-19T17:56:47.826Z,94380.84
2022-11-19T17:59:14.213Z,94376.50
2022-11-19T18:01:40.641Z,94371.74
2022-11-19T18:04:06.971Z,94386.92
2022-11-19T18:06:33.346Z,94386.14
2022-11-19T18:08:59.730Z,94402.38
2022-11-19T18:11:26.078Z,94407.88
2022-11-19T18:13:53.659Z,94403.19
2022-11-19T18:16:18.801Z,94397.22
2022-11-19T18:18:45.195Z,94393.05
2022-11-19T18:21:11.535Z,94392.22
2022-11-19T18:23:37.922Z,94397.02
2022-11-19T18:26:04.271Z,94397.84
2022-11-19T18:28:30.653Z,94379.47
2022-11-19T18:30:57.036Z,94361.94
2022-11-19T18:33:23.383Z,94367.56
2022-11-19T18:35:49.801Z,94362.73
2022-11-19T18:38:16.142Z,94346.61
2022-11-19T18:40:42.551Z,94361.94
2022-11-19T18:43:08.879Z,94373.64
2022-11-19T18:45:35.284Z,94371.89
2022-11-19T18:48:01.615Z,94372.36
2022-11-19T18:50:30.075Z,94380.55
2022-11-19T18:52:54.360Z,94377.51
2022-11-19T18:55:20.741Z,94365.57
2022-11-19T18:57:47.082Z,94368.97
2022-11-19T19:00:13.480Z,94378.33
2022-11-19T19:02:39.820Z,94361.86
2022-11-19T19:05:07.883Z,94372.36
2022-11-19T19:07:32.597Z,94371.89
2022-11-19T19:09:58.933Z,94365.57
2022-11-19T19:12:25.298Z,94363.97
2022-11-19T19:14:51.780Z,94372.16
2022-11-19T19:17:18.052Z,94351.20
2022-11-19T19:19:44.440Z,94356.83
2022-11-19T19:22:13.233Z,94361.51
2022-11-19T19:24:41.103Z,94362.68
2022-11-19T19:27:06.067Z,94355.54
2022-11-19T19:29:32.453Z,94351.83
2022-11-19T19:31:58.798Z,94364.55
2022-11-19T19:34:25.192Z,94358.94
2022-11-19T19:36:53.418Z,94367.48
2022-11-19T19:39:17.969Z,94362.33
2022-11-19T19:41:44.270Z,94366.86
2022-11-19T19:44:10.690Z,94336.11
2022-11-19T19:46:37.034Z,94340.45
2022-11-19T19:49:03.439Z,94342.20
2022-11-19T19:51:29.783Z,94344.30
2022-11-19T19:53:56.174Z,94331.91
2022-11-19T19:56:22.516Z,94329.80
2022-11-19T19:58:48.909Z,94338.48
2022-11-19T20:01:15.247Z,94322.07
2022-11-19T20:03:41.633Z,94323.51
2022-11-19T20:06:07.973Z,94327.22
2022-11-19T20:08:34.362Z,94329.47
2022-11-19T20:11:00.705Z,94323.51
2022-11-19T20:13:27.099Z,94327.84
2022-11-19T20:15:53.514Z,94318.01
2022-11-19T20:18:19.884Z,94320.12
2022-11-19T20:20:46.232Z,94314.62
2022-11-19T20:23:12.629Z,94309.94
2022-11-19T20:25:38.976Z,94295.78
2022-11-19T20:28:05.361Z,94296.40
2022-11-19T20:30:31.704Z,94303.97
2022-11-19T20:32:58.098Z,94301.89
2022-11-19T20:35:24.456Z,94285.28
2022-11-19T20:37:50.862Z,94269.48
2022-11-19T20:40:18.165Z,94275.80
2022-11-19T20:42:43.596Z,94284.47
2022-11-19T20:45:10.904Z,94276.27
2022-11-19T20:47:36.331Z,94266.59
2022-11-19T20:50:02.695Z,94283.17
2022-11-19T20:52:29.087Z,94274.17
2022-11-19T20:54:55.426Z,94252.44
2022-11-19T20:57:21.817Z,94274.17
2022-11-19T20:59:48.170Z,94253.10
2022-11-19T21:02:14.647Z,94260.48
2022-11-19T21:04:40.941Z,94274.17
2022-11-19T21:07:07.400Z,94285.75
2022-11-19T21:09:33.719Z,94289.14
2022-11-19T21:12:00.097Z,94268.70
2022-11-19T21:14:26.438Z,94287.39
2022-11-19T21:16:52.832Z,94298.16
2022-11-19T21:19:19.755Z,94271.74
2022-11-19T21:21:45.708Z,94257.70
2022-11-19T21:24:11.932Z,94256.42
2022-11-19T21:26:38.310Z,94273.50
2022-11-19T21:29:04.658Z,94262.03
2022-11-19T21:31:36.459Z,94275.14
2022-11-19T21:33:57.422Z,94263.33
2022-11-19T21:36:23.803Z,94268.35
2022-11-19T21:38:50.143Z,94267.06
2022-11-19T21:41:16.540Z,94246.13
2022-11-19T21:43:42.882Z,94246.59
2022-11-19T21:46:09.269Z,94265.89
2022-11-19T21:48:35.611Z,94253.37
2022-11-19T21:51:01.996Z,94247.88
2022-11-19T21:53:28.344Z,94249.16
2022-11-19T21:55:54.739Z,94233.41
2022-11-19T21:58:21.085Z,94249.78
2022-11-19T22:00:47.506Z,94249.98
2022-11-19T22:03:13.817Z,94271.39
2022-11-19T22:05:40.207Z,94251.27
2022-11-19T22:08:06.556Z,94252.70
2022-11-19T22:10:32.942Z,94247.09
2022-11-19T22:12:59.287Z,94256.69
2022-11-19T22:15:25.674Z,94270.73
2022-11-19T22:17:52.014Z,94233.05
2022-11-19T22:20:18.406Z,94241.13
2022-11-19T22:22:44.756Z,94248.15
2022-11-19T22:25:11.136Z,94230.48
2022-11-19T22:27:37.476Z,94225.45
2022-11-19T22:30:06.145Z,94236.91
2022-11-19T22:32:30.207Z,94241.94
2022-11-19T22:34:56.601Z,94233.05
2022-11-19T22:37:22.947Z,94235.98
2022-11-19T22:39:49.334Z,94236.56
2022-11-19T22:42:15.677Z,94243.47
2022-11-19T22:44:42.198Z,94248.03
2022-11-19T22:47:08.529Z,94229.66
2022-11-19T22:49:34.918Z,94230.48
2022-11-19T22:52:01.301Z,94233.05
2022-11-19T22:54:27.683Z,94243.81
2022-11-19T22:56:54.058Z,94247.68
2022-11-19T22:59:20.731Z,94223.23
2022-11-19T23:01:46.786Z,94218.70
2022-11-19T23:04:13.185Z,94217.27
2022-11-19T23:06:39.536Z,94210.16
2022-11-19T23:09:05.909Z,94203.73
2022-11-19T23:11:32.326Z,94205.36
2022-11-19T23:13:58.715Z,94225.80
2022-11-19T23:16:25.109Z,94242.69
2022-11-19T23:18:51.482Z,94241.25
2022-11-19T23:21:17.825Z,94266.52
2022-11-19T23:23:44.209Z,94240.42
2022-11-19T23:26:10.546Z,94213.20
2022-11-19T23:28:36.940Z,94232.23
2022-11-19T23:31:03.286Z,94236.25
2022-11-19T23:33:29.706Z,94244.76
2022-11-19T23:35:56.048Z,94232.70
2022-11-19T23:38:22.431Z,94247.68
2022-11-19T23:40:48.776Z,94253.45
2022-11-19T23:43:15.157Z,94254.58
2022-11-19T23:45:42.330Z,94236.25
2022-11-19T23:48:08.729Z,94237.19
2022-11-19T23:50:35.092Z,94215.31
2022-11-19T23:53:01.468Z,94235.55
2022-11-19T23:55:27.805Z,94238.00
2022-11-19T23:57:54.198Z,94232.03
